createdAt,value
2018-12-01T00:01:27.958Z,7.30
2018-12-01T00:03:55.966Z,7.20
2018-12-01T00:06:23.955Z,7.20
2018-12-01T00:08:51.938Z,7.20
2018-12-01T00:11:19.903Z,7.10
2018-12-01T00:13:48.049Z,7.10
2018-12-01T00:16:16.025Z,7.20
2018-12-01T00:18:44.002Z,7.20
2018-12-01T00:21:12.110Z,7.20
2018-12-01T00:23:40.078Z,7.30
2018-12-01T00:26:08.094Z,7.30
2018-12-01T00:28:36.074Z,7.30
2018-12-01T00:31:04.062Z,7.40
2018-12-01T00:33:32.155Z,7.30
2018-12-01T00:36:00.189Z,7.30
2018-12-01T00:38:28.167Z,7.30
2018-12-01T00:40:56.139Z,7.30
2018-12-01T00:43:24.087Z,7.40
2018-12-01T00:45:52.087Z,7.40
2018-12-01T00:48:20.063Z,7.40
2018-12-01T00:50:48.071Z,7.40
2018-12-01T00:53:16.059Z,7.40
2018-12-01T00:55:44.031Z,7.30
2018-12-01T00:58:12.006Z,7.30
2018-12-01T01:00:40.106Z,7.30
2018-12-01T01:03:08.074Z,7.20
2018-12-01T01:05:36.014Z,7.20
2018-12-01T01:08:04.102Z,7.20
2018-12-01T01:10:33.231Z,7.20
2018-12-01T01:13:01.204Z,7.10
2018-12-01T01:15:29.255Z,7.20
2018-12-01T01:17:57.425Z,7.20
2018-12-01T01:20:25.440Z,7.20
2018-12-01T01:22:53.475Z,7.20
2018-12-01T01:25:21.450Z,7.30
2018-12-01T01:27:49.417Z,7.30
2018-12-01T01:30:23.450Z,7.20
2018-12-01T01:32:52.615Z,7.20
2018-12-01T01:35:20.593Z,7.10
2018-12-01T01:37:48.630Z,7.10
2018-12-01T01:40:17.378Z,7.20
2018-12-01T01:42:45.435Z,7.10
2018-12-01T01:45:18.533Z,7.10
2018-12-01T01:47:46.775Z,7.00
2018-12-01T01:50:15.979Z,7.00
2018-12-01T01:52:44.012Z,7.00
2018-12-01T01:55:12.270Z,7.00
2018-12-01T01:57:40.699Z,7.00
2018-12-01T02:00:14.856Z,7.00
2018-12-01T02:02:45.047Z,6.90
2018-12-01T02:05:13.075Z,6.90
2018-12-01T02:07:41.059Z,6.90
2018-12-01T02:10:09.752Z,6.90
2018-12-01T02:12:37.823Z,6.90
2018-12-01T02:15:06.610Z,6.90
2018-12-01T02:17:34.703Z,6.90
2018-12-01T02:20:02.747Z,6.90
2018-12-01T02:22:30.776Z,6.80
2018-12-01T02:24:58.743Z,6.80
2018-12-01T02:27:26.761Z,6.90
2018-12-01T02:29:54.965Z,6.80
2018-12-01T02:32:22.952Z,6.80
2018-12-01T02:34:50.947Z,6.70
2018-12-01T02:37:18.972Z,6.70
2018-12-01T02:39:47.008Z,6.70
2018-12-01T02:42:15.202Z,6.70
2018-12-01T02:45:04.607Z,6.70
2018-12-01T02:47:33.270Z,6.70
2018-12-01T02:50:01.349Z,6.70
2018-12-01T02:52:29.331Z,6.70
2018-12-01T02:54:58.205Z,6.70
2018-12-01T02:57:26.190Z,6.70
2018-12-01T02:59:54.194Z,6.70
2018-12-01T03:02:24.347Z,6.70
2018-12-01T03:04:53.123Z,6.80
2018-12-01T03:07:21.216Z,6.80
2018-12-01T03:09:49.209Z,6.80
2018-12-01T03:12:17.225Z,6.90
2018-12-01T03:14:45.388Z,6.90
2018-12-01T03:17:13.383Z,6.90
2018-12-01T03:19:41.440Z,7.00
2018-12-01T03:22:09.416Z,7.00
2018-12-01T03:24:37.395Z,7.00
2018-12-01T03:27:05.770Z,7.10
2018-12-01T03:29:33.744Z,7.10
2018-12-01T03:32:01.762Z,7.20
2018-12-01T03:34:29.763Z,7.20
2018-12-01T03:36:57.833Z,7.20
2018-12-01T03:39:25.819Z,7.30
2018-12-01T03:41:53.895Z,7.30
2018-12-01T03:44:21.861Z,7.20
2018-12-01T03:46:49.835Z,7.30
2018-12-01T03:49:17.814Z,7.20
2018-12-01T03:51:45.763Z,7.30
2018-12-01T03:54:13.723Z,7.20
2018-12-01T03:56:41.730Z,7.20
2018-12-01T03:59:09.704Z,7.20
2018-12-01T04:01:37.674Z,7.20
2018-12-01T04:04:05.733Z,7.10
2018-12-01T04:06:33.691Z,7.10
2018-12-01T04:09:05.921Z,7.10
2018-12-01T04:11:33.903Z,7.10
2018-12-01T04:14:01.962Z,7.10
2018-12-01T04:16:29.963Z,7.00
2018-12-01T04:18:57.967Z,7.10
2018-12-01T04:21:25.972Z,7.10
2018-12-01T04:23:53.966Z,7.20
2018-12-01T04:26:21.936Z,7.20
2018-12-01T04:28:49.983Z,7.20
2018-12-01T04:31:17.994Z,7.30
2018-12-01T04:33:46.027Z,7.30
2018-12-01T04:36:14.055Z,7.30
2018-12-01T04:38:42.158Z,7.40
2018-12-01T04:41:10.127Z,7.50
2018-12-01T04:43:38.123Z,7.50
2018-12-01T04:46:06.112Z,7.50
2018-12-01T04:48:34.095Z,7.60
2018-12-01T04:51:02.086Z,7.60
2018-12-01T04:53:30.243Z,7.70
2018-12-01T04:55:58.219Z,7.70
2018-12-01T04:58:26.230Z,7.70
2018-12-01T05:00:54.220Z,7.70
2018-12-01T05:03:22.198Z,7.80
2018-12-01T05:05:50.178Z,7.80
2018-12-01T05:08:18.226Z,7.80
2018-12-01T05:10:46.207Z,7.80
2018-12-01T05:13:14.166Z,7.90
2018-12-01T05:15:42.131Z,7.90
2018-12-01T05:18:10.116Z,7.90
2018-12-01T05:20:38.163Z,7.90
2018-12-01T05:23:06.152Z,8.00
2018-12-01T05:25:34.192Z,7.90
2018-12-01T05:28:02.218Z,7.80
2018-12-01T05:30:30.205Z,7.80
2018-12-01T05:32:58.295Z,7.90
2018-12-01T05:35:26.281Z,7.90
2018-12-01T05:37:55.246Z,7.90
2018-12-01T05:40:23.275Z,7.90
2018-12-01T05:42:51.278Z,7.90
2018-12-01T05:45:20.988Z,7.90
2018-12-01T05:47:49.349Z,7.90
2018-12-01T05:50:24.386Z,7.90
2018-12-01T05:52:53.314Z,7.90
2018-12-01T05:55:21.442Z,7.80
2018-12-01T05:57:49.474Z,7.90
2018-12-01T06:00:17.634Z,7.80
2018-12-01T06:02:45.605Z,7.80
2018-12-01T06:05:13.592Z,7.80
2018-12-01T06:07:42.356Z,7.70
2018-12-01T06:10:16.574Z,7.70
2018-12-01T06:12:44.944Z,7.70
2018-12-01T06:15:13.838Z,7.60
2018-12-01T06:17:41.888Z,7.60
2018-12-01T06:20:11.108Z,7.50
2018-12-01T06:22:39.079Z,7.50
2018-12-01T06:25:09.103Z,7.50
2018-12-01T06:27:37.098Z,7.40
2018-12-01T06:30:08.527Z,7.50
2018-12-01T06:32:36.494Z,7.40
2018-12-01T06:35:04.855Z,7.50
2018-12-01T06:37:32.835Z,7.40
2018-12-01T06:40:00.806Z,7.40
2018-12-01T06:42:29.314Z,7.40
2018-12-01T06:44:57.283Z,7.40
2018-12-01T06:47:25.268Z,7.40
2018-12-01T06:49:53.247Z,7.40
2018-12-01T06:52:21.356Z,7.40
2018-12-01T06:54:49.340Z,7.40
2018-12-01T06:57:17.529Z,7.40
2018-12-01T06:59:45.515Z,7.40
2018-12-01T07:02:13.499Z,7.40
2018-12-01T07:04:41.527Z,7.30
2018-12-01T07:07:09.511Z,7.30
2018-12-01T07:09:37.483Z,7.30
2018-12-01T07:12:05.612Z,7.30
2018-12-01T07:14:33.583Z,7.40
2018-12-01T07:17:01.603Z,7.30
2018-12-01T07:19:29.571Z,7.40
2018-12-01T07:21:57.595Z,7.50
2018-12-01T07:24:25.568Z,7.50
2018-12-01T07:26:53.621Z,7.50
2018-12-01T07:29:21.600Z,7.60
2018-12-01T07:31:49.571Z,7.60
2018-12-01T07:34:17.545Z,7.60
2018-12-01T07:36:45.507Z,7.70
2018-12-01T07:39:13.487Z,7.70
2018-12-01T07:41:41.472Z,7.70
2018-12-01T07:44:09.518Z,7.80
2018-12-01T07:46:37.455Z,7.80
2018-12-01T07:49:05.439Z,7.80
2018-12-01T07:51:33.399Z,7.90
2018-12-01T07:54:01.397Z,7.90
2018-12-01T07:56:29.970Z,7.90
2018-12-01T07:58:57.927Z,7.90
2018-12-01T08:01:25.928Z,7.90
2018-12-01T08:03:53.910Z,7.90
2018-12-01T08:06:21.927Z,7.90
2018-12-01T08:08:49.899Z,7.90
2018-12-01T08:11:17.892Z,7.90
2018-12-01T08:13:45.871Z,7.90
2018-12-01T08:16:13.873Z,7.90
2018-12-01T08:18:41.883Z,7.90
2018-12-01T08:21:09.882Z,7.90
2018-12-01T08:23:37.850Z,7.90
2018-12-01T08:26:06.310Z,7.90
2018-12-01T08:28:34.472Z,7.90
2018-12-01T08:31:02.572Z,7.90
2018-12-01T08:33:30.612Z,7.90
2018-12-01T08:35:58.700Z,7.90
2018-12-01T08:38:26.759Z,7.90
2018-12-01T08:40:54.739Z,8.00
2018-12-01T08:43:22.787Z,8.00
2018-12-01T08:45:50.764Z,8.10
2018-12-01T08:48:18.848Z,8.00
2018-12-01T08:50:46.896Z,8.10
2018-12-01T08:53:14.859Z,8.10
2018-12-01T08:55:42.832Z,8.20
2018-12-01T08:58:10.809Z,8.20
2018-12-01T09:00:40.927Z,8.30
2018-12-01T09:03:17.011Z,8.20
2018-12-01T09:05:44.995Z,8.20
2018-12-01T09:08:13.662Z,8.20
2018-12-01T09:10:42.986Z,8.10
2018-12-01T09:13:11.000Z,8.20
2018-12-01T09:15:39.079Z,8.20
2018-12-01T09:18:07.778Z,8.30
2018-12-01T09:20:35.796Z,8.30
2018-12-01T09:23:03.764Z,8.30
2018-12-01T09:25:31.884Z,8.40
2018-12-01T09:27:59.883Z,8.30
2018-12-01T09:30:29.027Z,8.20
2018-12-01T09:32:57.459Z,8.20
2018-12-01T09:35:25.019Z,8.40
2018-12-01T09:37:53.022Z,8.40
2018-12-01T09:40:22.266Z,8.50
2018-12-01T09:42:50.253Z,8.60
2018-12-01T09:45:20.664Z,8.70
2018-12-01T09:47:49.556Z,8.80
2018-12-01T09:50:17.513Z,8.90
2018-12-01T09:52:46.609Z,8.80
2018-12-01T09:55:17.836Z,8.80
2018-12-01T09:57:46.522Z,8.80
2018-12-01T10:00:16.762Z,8.90
2018-12-01T10:02:45.413Z,8.90
2018-12-01T10:05:14.736Z,9.10
2018-12-01T10:07:42.693Z,9.10
2018-12-01T10:10:12.015Z,9.10
2018-12-01T10:12:40.002Z,9.10
2018-12-01T10:15:14.179Z,9.00
2018-12-01T10:17:42.371Z,9.10
2018-12-01T10:20:11.935Z,9.30
2018-12-01T10:22:39.990Z,9.20
2018-12-01T10:25:11.206Z,9.40
2018-12-01T10:27:39.221Z,9.50
2018-12-01T10:30:16.652Z,9.60
2018-12-01T10:32:44.814Z,9.60
2018-12-01T10:35:14.040Z,9.70
2018-12-01T10:37:42.060Z,9.80
2018-12-01T10:40:11.962Z,9.90
2018-12-01T10:42:39.959Z,9.90
2018-12-01T10:45:14.295Z,10.20
2018-12-01T10:47:42.832Z,10.30
2018-12-01T10:50:11.952Z,10.40
2018-12-01T10:52:40.180Z,10.70
2018-12-01T10:55:28.915Z,11.30
2018-12-01T10:58:00.039Z,12.10
2018-12-01T11:00:33.424Z,12.40
2018-12-01T11:03:04.589Z,12.60
2018-12-01T11:05:33.646Z,13.30
2018-12-01T11:08:01.656Z,13.60
2018-12-01T11:10:29.640Z,13.60
2018-12-01T11:12:57.777Z,13.80
2018-12-01T11:15:25.848Z,13.90
2018-12-01T11:17:53.910Z,13.80
2018-12-01T11:20:21.873Z,14.40
2018-12-01T11:22:49.851Z,14.90
2018-12-01T11:25:18.274Z,13.60
2018-12-01T11:27:46.431Z,13.80
2018-12-01T11:30:15.487Z,14.10
2018-12-01T11:32:43.458Z,15.60
2018-12-01T11:35:11.418Z,15.10
2018-12-01T11:37:39.401Z,15.30
2018-12-01T11:40:09.094Z,15.50
2018-12-01T11:42:37.262Z,15.80
2018-12-01T11:45:07.646Z,15.60
2018-12-01T11:47:35.662Z,15.90
2018-12-01T11:50:05.315Z,15.10
2018-12-01T11:52:33.356Z,15.00
2018-12-01T11:55:01.396Z,15.20
2018-12-01T11:57:29.418Z,16.20
2018-12-01T11:59:57.361Z,14.80
2018-12-01T12:02:25.404Z,14.80
2018-12-01T12:04:53.400Z,14.50
2018-12-01T12:07:32.940Z,14.40
2018-12-01T12:10:00.910Z,15.00
2018-12-01T12:12:28.976Z,15.70
2018-12-01T12:14:56.937Z,16.60
2018-12-01T12:17:24.918Z,15.30
2018-12-01T12:19:52.889Z,16.20
2018-12-01T12:22:20.850Z,16.80
2018-12-01T12:24:48.795Z,17.80
2018-12-01T12:27:16.773Z,17.40
2018-12-01T12:29:44.735Z,15.50
2018-12-01T12:32:12.707Z,15.50
2018-12-01T12:34:40.664Z,16.40
2018-12-01T12:37:08.744Z,16.90
2018-12-01T12:39:36.720Z,15.60
2018-12-01T12:42:05.335Z,16.30
2018-12-01T12:44:33.296Z,17.30
2018-12-01T12:47:01.318Z,17.60
2018-12-01T12:49:29.286Z,16.60
2018-12-01T12:51:57.268Z,16.70
2018-12-01T12:54:25.259Z,16.80
2018-12-01T12:56:53.334Z,17.50
2018-12-01T12:59:21.323Z,17.00
2018-12-01T13:01:49.989Z,17.40
2018-12-01T13:04:17.960Z,17.30
2018-12-01T13:06:46.002Z,18.20
2018-12-01T13:09:14.102Z,19.30
2018-12-01T13:11:42.058Z,18.40
2018-12-01T13:14:10.072Z,18.60
2018-12-01T13:16:38.042Z,17.90
2018-12-01T13:19:06.037Z,18.20
2018-12-01T13:21:34.036Z,17.90
2018-12-01T13:24:02.030Z,17.40
2018-12-01T13:26:29.971Z,17.50
2018-12-01T13:28:58.002Z,16.90
2018-12-01T13:31:26.134Z,16.00
2018-12-01T13:33:54.180Z,14.50
2018-12-01T13:36:22.733Z,13.80
2018-12-01T13:38:50.805Z,13.10
2018-12-01T13:41:18.904Z,12.50
2018-12-01T13:43:46.863Z,12.50
2018-12-01T13:46:21.451Z,12.20
2018-12-01T13:48:49.470Z,12.00
2018-12-01T13:51:17.456Z,12.00
2018-12-01T13:53:45.530Z,12.00
2018-12-01T13:56:14.316Z,12.20
2018-12-01T13:58:42.388Z,11.80
2018-12-01T14:01:10.356Z,11.50
2018-12-01T14:03:38.377Z,11.50
2018-12-01T14:06:06.546Z,11.10
2018-12-01T14:08:34.534Z,11.10
2018-12-01T14:11:02.489Z,11.30
2018-12-01T14:13:30.510Z,11.30
2018-12-01T14:15:58.479Z,11.30
2018-12-01T14:18:26.535Z,11.30
2018-12-01T14:20:54.526Z,11.30
2018-12-01T14:23:23.568Z,11.10
2018-12-01T14:25:51.579Z,11.00
2018-12-01T14:28:19.539Z,11.10
2018-12-01T14:30:48.407Z,10.90
2018-12-01T14:33:16.497Z,10.90
2018-12-01T14:35:44.455Z,11.00
2018-12-01T14:38:17.167Z,11.00
2018-12-01T14:40:46.427Z,11.00
2018-12-01T14:43:14.530Z,11.00
2018-12-01T14:45:43.394Z,11.10
2018-12-01T14:48:11.479Z,10.80
2018-12-01T14:50:39.450Z,10.70
2018-12-01T14:53:08.724Z,10.60
2018-12-01T14:55:36.691Z,10.60
2018-12-01T14:58:04.990Z,10.50
2018-12-01T15:00:33.052Z,10.50
2018-12-01T15:03:01.006Z,10.30
2018-12-01T15:05:29.026Z,10.40
2018-12-01T15:07:57.059Z,10.30
2018-12-01T15:10:25.985Z,10.10
2018-12-01T15:12:53.978Z,10.00
2018-12-01T15:15:25.052Z,9.90
2018-12-01T15:17:53.039Z,9.80
2018-12-01T15:20:22.051Z,9.70
2018-12-01T15:22:53.077Z,9.70
2018-12-01T15:25:28.450Z,9.70
2018-12-01T15:27:56.723Z,9.80
2018-12-01T15:30:28.666Z,9.70
2018-12-01T15:33:03.075Z,9.60
2018-12-01T15:35:31.082Z,9.50
2018-12-01T15:37:59.106Z,9.50
2018-12-01T15:40:27.100Z,9.40
2018-12-01T15:42:55.102Z,9.30
2018-12-01T15:45:23.323Z,9.20
2018-12-01T15:47:51.412Z,9.20
2018-12-01T15:50:20.317Z,9.20
2018-12-01T15:52:51.299Z,9.30
2018-12-01T15:55:19.607Z,9.10
2018-12-01T15:57:47.621Z,9.10
2018-12-01T16:00:17.674Z,9.00
2018-12-01T16:02:46.478Z,9.00
2018-12-01T16:05:15.550Z,9.00
2018-12-01T16:07:43.656Z,9.00
2018-12-01T16:10:13.028Z,9.00
2018-12-01T16:12:41.311Z,8.90
2018-12-01T16:15:15.115Z,8.90
2018-12-01T16:17:43.074Z,8.80
2018-12-01T16:20:12.281Z,8.80
2018-12-01T16:22:40.255Z,8.70
2018-12-01T16:25:10.088Z,8.60
2018-12-01T16:27:38.895Z,8.60
2018-12-01T16:30:30.063Z,8.60
2018-12-01T16:33:00.440Z,8.50
2018-12-01T16:35:28.444Z,8.40
2018-12-01T16:37:56.601Z,8.40
2018-12-01T16:40:30.523Z,8.40
2018-12-01T16:42:59.939Z,8.40
2018-12-01T16:45:27.940Z,8.30
2018-12-01T16:47:55.986Z,8.40
2018-12-01T16:50:23.955Z,8.30
2018-12-01T16:52:51.952Z,8.30
2018-12-01T16:55:19.932Z,8.40
2018-12-01T16:57:47.950Z,8.40
2018-12-01T17:00:17.005Z,8.40
2018-12-01T17:02:47.312Z,8.40
2018-12-01T17:05:16.499Z,8.30
2018-12-01T17:07:44.494Z,8.40
2018-12-01T17:10:14.714Z,8.40
2018-12-01T17:12:43.240Z,8.40
2018-12-01T17:15:16.464Z,8.40
2018-12-01T17:17:44.463Z,8.40
2018-12-01T17:20:13.403Z,8.40
2018-12-01T17:22:43.563Z,8.40
2018-12-01T17:25:13.764Z,8.30
2018-12-01T17:27:41.877Z,8.30
2018-12-01T17:30:16.220Z,8.30
2018-12-01T17:32:44.230Z,8.20
2018-12-01T17:35:14.309Z,8.20
2018-12-01T17:37:42.695Z,8.30
2018-12-01T17:40:14.610Z,8.20
2018-12-01T17:42:44.756Z,8.20
2018-12-01T17:45:12.826Z,8.20
2018-12-01T17:47:40.802Z,8.20
2018-12-01T17:50:11.139Z,8.30
2018-12-01T17:52:39.801Z,8.30
2018-12-01T17:55:11.410Z,8.30
2018-12-01T17:57:39.406Z,8.30
2018-12-01T18:00:13.622Z,8.30
2018-12-01T18:02:41.672Z,8.30
2018-12-01T18:05:12.271Z,8.30
2018-12-01T18:07:40.366Z,8.30
2018-12-01T18:10:09.839Z,8.30
2018-12-01T18:12:37.891Z,8.30
2018-12-01T18:15:09.447Z,8.30
2018-12-01T18:17:37.562Z,8.30
2018-12-01T18:20:12.095Z,8.30
2018-12-01T18:22:40.188Z,8.20
2018-12-01T18:25:08.919Z,8.20
2018-12-01T18:27:36.968Z,8.20
2018-12-01T18:30:09.999Z,8.20
2018-12-01T18:32:38.023Z,8.10
2018-12-01T18:35:07.197Z,8.20
2018-12-01T18:37:35.360Z,8.10
2018-12-01T18:40:08.119Z,8.10
2018-12-01T18:42:36.108Z,8.10
2018-12-01T18:45:04.102Z,8.10
2018-12-01T18:47:32.071Z,8.00
2018-12-01T18:50:00.165Z,8.00
2018-12-01T18:52:28.171Z,8.10
2018-12-01T18:54:56.143Z,8.10
2018-12-01T18:57:24.137Z,8.10
2018-12-01T18:59:52.113Z,8.10
2018-12-01T19:02:20.063Z,8.10
2018-12-01T19:04:48.035Z,8.10
2018-12-01T19:07:16.050Z,8.10
2018-12-01T19:09:44.051Z,8.10
2018-12-01T19:12:12.116Z,8.00
2018-12-01T19:14:40.084Z,8.00
2018-12-01T19:17:08.057Z,8.10
2018-12-01T19:19:37.135Z,8.20
2018-12-01T19:22:05.410Z,8.10
2018-12-01T19:24:33.458Z,8.20
2018-12-01T19:27:01.523Z,8.10
2018-12-01T19:29:29.640Z,8.20
2018-12-01T19:31:57.920Z,8.20
2018-12-01T19:34:26.170Z,8.30
2018-12-01T19:36:54.222Z,8.20
2018-12-01T19:39:22.209Z,8.20
2018-12-01T19:41:50.535Z,8.20
2018-12-01T19:44:18.475Z,8.20
2018-12-01T19:46:46.476Z,8.30
2018-12-01T19:49:14.410Z,8.30
2018-12-01T19:51:42.396Z,8.30
2018-12-01T19:54:11.137Z,8.30
2018-12-01T19:56:39.231Z,8.30
2018-12-01T19:59:07.207Z,8.30
2018-12-01T20:01:35.452Z,8.30
2018-12-01T20:04:03.416Z,8.40
2018-12-01T20:06:31.392Z,8.40
2018-12-01T20:09:00.815Z,8.40
2018-12-01T20:11:27.571Z,8.40
2018-12-01T20:13:55.543Z,8.30
2018-12-01T20:16:25.351Z,8.40
2018-12-01T20:18:53.732Z,8.40
2018-12-01T20:21:22.322Z,8.40
2018-12-01T20:23:50.291Z,8.40
2018-12-01T20:26:18.547Z,8.30
2018-12-01T20:28:46.539Z,8.40
2018-12-01T20:31:14.488Z,8.40
2018-12-01T20:33:42.495Z,8.40
2018-12-01T20:36:18.895Z,8.40
2018-12-01T20:38:48.948Z,8.40
2018-12-01T20:41:16.969Z,8.40
2018-12-01T20:43:44.962Z,8.40
2018-12-01T20:46:12.948Z,8.40
2018-12-01T20:48:41.091Z,8.40
2018-12-01T20:51:09.648Z,8.40
2018-12-01T20:53:37.664Z,8.40
2018-12-01T20:56:11.319Z,8.40
2018-12-01T20:58:39.304Z,8.50
2018-12-01T21:01:07.363Z,8.60
2018-12-01T21:03:35.446Z,8.50
2018-12-01T21:06:03.422Z,8.60
2018-12-01T21:08:31.475Z,8.50
2018-12-01T21:11:01.654Z,8.60
2018-12-01T21:13:29.719Z,8.60
2018-12-01T21:15:57.693Z,8.60
2018-12-01T21:18:25.843Z,8.60
2018-12-01T21:20:53.826Z,8.70
2018-12-01T21:23:21.827Z,8.70
2018-12-01T21:25:50.607Z,8.70
2018-12-01T21:28:18.583Z,8.70
2018-12-01T21:30:47.655Z,8.70
2018-12-01T21:33:19.971Z,8.70
2018-12-01T21:35:47.986Z,8.70
2018-12-01T21:38:16.209Z,8.60
2018-12-01T21:40:44.429Z,8.70
2018-12-01T21:43:12.711Z,8.70
2018-12-01T21:45:40.852Z,8.70
2018-12-01T21:48:10.685Z,8.70
2018-12-01T21:50:39.479Z,8.70
2018-12-01T21:53:09.695Z,8.70
2018-12-01T21:55:37.642Z,8.80
2018-12-01T21:58:06.419Z,8.80
2018-12-01T22:00:34.403Z,8.80
2018-12-01T22:03:05.039Z,8.80
2018-12-01T22:06:06.144Z,8.80
2018-12-01T22:08:35.044Z,8.80
2018-12-01T22:11:03.003Z,8.80
2018-12-01T22:13:30.999Z,8.80
2018-12-01T22:15:58.947Z,8.90
2018-12-01T22:18:27.104Z,8.90
2018-12-01T22:20:55.107Z,8.90
2018-12-01T22:23:23.115Z,8.90
2018-12-01T22:25:51.192Z,8.90
2018-12-01T22:28:19.238Z,8.90
2018-12-01T22:30:49.299Z,9.00
2018-12-01T22:33:23.143Z,9.00
2018-12-01T22:35:51.101Z,9.00
2018-12-01T22:38:19.304Z,9.10
2018-12-01T22:40:47.557Z,9.00
2018-12-01T22:43:15.619Z,9.10
2018-12-01T22:45:43.624Z,9.00
2018-12-01T22:48:19.199Z,9.10
2018-12-01T22:50:48.835Z,9.10
2018-12-01T22:53:16.853Z,9.00
2018-12-01T22:55:45.303Z,9.10
2018-12-01T22:58:15.241Z,9.00
2018-12-01T23:00:48.635Z,9.00
2018-12-01T23:03:16.692Z,9.00
2018-12-01T23:05:44.714Z,9.00
2018-12-01T23:08:13.869Z,9.00
2018-12-01T23:10:41.890Z,9.00
2018-12-01T23:13:10.123Z,9.10
2018-12-01T23:15:39.022Z,9.10
2018-12-01T23:18:08.639Z,9.00
2018-12-01T23:20:37.474Z,9.10
2018-12-01T23:23:06.073Z,9.20
2018-12-01T23:25:34.043Z,9.10
2018-12-01T23:28:02.134Z,9.20
2018-12-01T23:30:30.838Z,9.20
2018-12-01T23:33:08.406Z,9.20
2018-12-01T23:35:36.566Z,9.20
2018-12-01T23:38:04.784Z,9.20
2018-12-01T23:40:32.758Z,9.20
2018-12-01T23:43:00.877Z,9.20
2018-12-01T23:45:28.919Z,9.30
2018-12-01T23:47:56.995Z,9.30
2018-12-01T23:50:25.902Z,9.30
2018-12-01T23:52:55.175Z,9.20
2018-12-01T23:55:23.182Z,9.30
2018-12-01T23:57:51.169Z,9.30
